sensor_id;sensor_type;location;lat;lon;timestamp;temperature;humidity
44305;DHT22;30019;50.576;8.568;2022-08-30T00:01:13;14.50;99.90
44305;DHT22;30019;50.576;8.568;2022-08-30T00:03:42;14.60;99.90
44305;DHT22;30019;50.576;8.568;2022-08-30T00:06:15;14.60;99.90
44305;DHT22;30019;50.576;8.568;2022-08-30T00:08:43;14.60;99.90
44305;DHT22;30019;50.576;8.568;2022-08-30T00:11:13;14.70;99.90
44305;DHT22;30019;50.576;8.568;2022-08-30T00:13:41;14.70;99.90
44305;DHT22;30019;50.576;8.568;2022-08-30T00:16:08;14.80;99.90
44305;DHT22;30019;50.576;8.568;2022-08-30T00:18:34;14.90;99.90
44305;DHT22;30019;50.576;8.568;2022-08-30T00:21:01;15.00;99.90
44305;DHT22;30019;50.576;8.568;2022-08-30T00:23:26;15.00;99.90
44305;DHT22;30019;50.576;8.568;2022-08-30T00:25:52;15.00;99.90
44305;DHT22;30019;50.576;8.568;2022-08-30T00:28:18;14.90;99.90
44305;DHT22;30019;50.576;8.568;2022-08-30T00:30:45;14.90;99.90
44305;DHT22;30019;50.576;8.568;2022-08-30T00:33:12;15.00;99.90
44305;DHT22;30019;50.576;8.568;2022-08-30T00:35:37;15.10;99.90
44305;DHT22;30019;50.576;8.568;2022-08-30T00:38:08;15.10;99.90
44305;DHT22;30019;50.576;8.568;2022-08-30T00:40:36;15.20;99.90
44305;DHT22;30019;50.576;8.568;2022-08-30T00:43:05;15.30;99.90
44305;DHT22;30019;50.576;8.568;2022-08-30T00:45:35;15.40;99.90
44305;DHT22;30019;50.576;8.568;2022-08-30T00:48:02;15.40;99.90
44305;DHT22;30019;50.576;8.568;2022-08-30T00:50:33;15.20;99.90
44305;DHT22;30019;50.576;8.568;2022-08-30T00:53:02;15.10;99.90
44305;DHT22;30019;50.576;8.568;2022-08-30T00:55:28;15.00;99.90
44305;DHT22;30019;50.576;8.568;2022-08-30T00:57:58;15.00;99.90
44305;DHT22;30019;50.576;8.568;2022-08-30T01:00:25;14.90;99.90
44305;DHT22;30019;50.576;8.568;2022-08-30T01:02:51;14.80;99.90
44305;DHT22;30019;50.576;8.568;2022-08-30T01:05:16;14.70;99.90
44305;DHT22;30019;50.576;8.568;2022-08-30T01:07:42;14.60;99.90
44305;DHT22;30019;50.576;8.568;2022-08-30T01:10:10;14.50;99.90
44305;DHT22;30019;50.576;8.568;2022-08-30T01:12:37;14.40;99.90
44305;DHT22;30019;50.576;8.568;2022-08-30T01:15:05;14.40;99.90
44305;DHT22;30019;50.576;8.568;2022-08-30T01:17:31;14.40;99.90
44305;DHT22;30019;50.576;8.568;2022-08-30T01:20:07;14.30;99.90
44305;DHT22;30019;50.576;8.568;2022-08-30T01:25:17;14.20;99.90
44305;DHT22;30019;50.576;8.568;2022-08-30T01:27:50;14.20;99.90
44305;DHT22;30019;50.576;8.568;2022-08-30T01:30:17;14.10;99.90
44305;DHT22;30019;50.576;8.568;2022-08-30T01:32:46;13.90;99.90
44305;DHT22;30019;50.576;8.568;2022-08-30T01:35:16;13.90;99.90
44305;DHT22;30019;50.576;8.568;2022-08-30T01:37:43;13.90;99.90
44305;DHT22;30019;50.576;8.568;2022-08-30T01:40:11;13.80;99.90
44305;DHT22;30019;50.576;8.568;2022-08-30T01:42:37;13.70;99.90
44305;DHT22;30019;50.576;8.568;2022-08-30T01:45:04;13.60;99.90
44305;DHT22;30019;50.576;8.568;2022-08-30T01:47:30;13.60;99.90
44305;DHT22;30019;50.576;8.568;2022-08-30T01:49:56;13.60;99.90
44305;DHT22;30019;50.576;8.568;2022-08-30T01:52:23;13.60;99.90
44305;DHT22;30019;50.576;8.568;2022-08-30T01:54:49;13.60;99.90
44305;DHT22;30019;50.576;8.568;2022-08-30T01:57:18;13.60;99.90
44305;DHT22;30019;50.576;8.568;2022-08-30T01:59:45;13.50;99.90
44305;DHT22;30019;50.576;8.568;2022-08-30T02:02:17;13.50;99.90
44305;DHT22;30019;50.576;8.568;2022-08-30T02:04:46;13.50;99.90
44305;DHT22;30019;50.576;8.568;2022-08-30T02:07:11;13.50;99.90
44305;DHT22;30019;50.576;8.568;2022-08-30T02:09:37;13.50;99.90
44305;DHT22;30019;50.576;8.568;2022-08-30T02:12:04;13.50;99.90
44305;DHT22;30019;50.576;8.568;2022-08-30T02:14:31;13.50;99.90
44305;DHT22;30019;50.576;8.568;2022-08-30T02:16:57;13.40;99.90
44305;DHT22;30019;50.576;8.568;2022-08-30T02:19:23;13.40;99.90
44305;DHT22;30019;50.576;8.568;2022-08-30T02:21:48;13.40;99.90
44305;DHT22;30019;50.576;8.568;2022-08-30T02:24:14;13.30;99.90
44305;DHT22;30019;50.576;8.568;2022-08-30T02:26:40;13.20;99.90
44305;DHT22;30019;50.576;8.568;2022-08-30T02:29:06;13.20;99.90
44305;DHT22;30019;50.576;8.568;2022-08-30T02:31:33;13.20;99.90
44305;DHT22;30019;50.576;8.568;2022-08-30T02:33:59;13.10;99.90
44305;DHT22;30019;50.576;8.568;2022-08-30T02:36:24;13.00;99.90
44305;DHT22;30019;50.576;8.568;2022-08-30T02:38:50;13.00;99.90
44305;DHT22;30019;50.576;8.568;2022-08-30T02:41:16;13.10;99.90
44305;DHT22;30019;50.576;8.568;2022-08-30T02:43:42;13.20;99.90
44305;DHT22;30019;50.576;8.568;2022-08-30T02:46:07;13.20;99.90
44305;DHT22;30019;50.576;8.568;2022-08-30T02:48:33;13.20;99.90
44305;DHT22;30019;50.576;8.568;2022-08-30T02:51:08;13.30;99.90
44305;DHT22;30019;50.576;8.568;2022-08-30T02:53:34;13.40;99.90
44305;DHT22;30019;50.576;8.568;2022-08-30T02:56:00;13.40;99.90
44305;DHT22;30019;50.576;8.568;2022-08-30T02:58:25;13.30;99.90
44305;DHT22;30019;50.576;8.568;2022-08-30T03:00:51;13.20;99.90
44305;DHT22;30019;50.576;8.568;2022-08-30T03:03:17;13.20;99.90
44305;DHT22;30019;50.576;8.568;2022-08-30T03:05:42;13.20;99.90
44305;DHT22;30019;50.576;8.568;2022-08-30T03:08:08;13.30;99.90
44305;DHT22;30019;50.576;8.568;2022-08-30T03:10:34;13.40;99.90
44305;DHT22;30019;50.576;8.568;2022-08-30T03:13:00;13.50;99.90
44305;DHT22;30019;50.576;8.568;2022-08-30T03:15:26;13.50;99.90
44305;DHT22;30019;50.576;8.568;2022-08-30T03:17:53;13.60;99.90
44305;DHT22;30019;50.576;8.568;2022-08-30T03:20:20;13.70;99.90
44305;DHT22;30019;50.576;8.568;2022-08-30T03:22:46;13.70;99.90
44305;DHT22;30019;50.576;8.568;2022-08-30T03:25:14;13.80;99.90
44305;DHT22;30019;50.576;8.568;2022-08-30T03:27:39;13.80;99.90
44305;DHT22;30019;50.576;8.568;2022-08-30T03:30:06;14.00;99.90
44305;DHT22;30019;50.576;8.568;2022-08-30T03:32:33;14.00;99.90
44305;DHT22;30019;50.576;8.568;2022-08-30T03:34:59;13.90;99.90
44305;DHT22;30019;50.576;8.568;2022-08-30T03:37:25;13.90;99.90
44305;DHT22;30019;50.576;8.568;2022-08-30T03:39:52;13.90;99.90
44305;DHT22;30019;50.576;8.568;2022-08-30T03:42:18;13.90;99.90
44305;DHT22;30019;50.576;8.568;2022-08-30T03:44:44;13.90;99.90
44305;DHT22;30019;50.576;8.568;2022-08-30T03:47:09;13.90;99.90
44305;DHT22;30019;50.576;8.568;2022-08-30T03:49:35;13.90;99.90
44305;DHT22;30019;50.576;8.568;2022-08-30T03:52:01;13.80;99.90
44305;DHT22;30019;50.576;8.568;2022-08-30T03:54:26;13.80;99.90
44305;DHT22;30019;50.576;8.568;2022-08-30T03:56:52;13.80;99.90
44305;DHT22;30019;50.576;8.568;2022-08-30T03:59:17;13.90;99.90
44305;DHT22;30019;50.576;8.568;2022-08-30T04:01:43;13.90;99.90
44305;DHT22;30019;50.576;8.568;2022-08-30T04:04:10;14.00;99.90
44305;DHT22;30019;50.576;8.568;2022-08-30T04:06:36;13.90;99.90
44305;DHT22;30019;50.576;8.568;2022-08-30T04:09:02;13.80;99.90
44305;DHT22;30019;50.576;8.568;2022-08-30T04:11:28;13.80;99.90
44305;DHT22;30019;50.576;8.568;2022-08-30T04:13:53;13.80;99.90
44305;DHT22;30019;50.576;8.568;2022-08-30T04:16:20;13.80;99.90
44305;DHT22;30019;50.576;8.568;2022-08-30T04:18:46;13.70;99.90
44305;DHT22;30019;50.576;8.568;2022-08-30T04:21:11;13.70;99.90
44305;DHT22;30019;50.576;8.568;2022-08-30T04:23:37;13.80;99.90
44305;DHT22;30019;50.576;8.568;2022-08-30T04:26:03;13.80;99.90
44305;DHT22;30019;50.576;8.568;2022-08-30T04:28:28;13.70;99.90
44305;DHT22;30019;50.576;8.568;2022-08-30T04:30:54;13.70;99.90
44305;DHT22;30019;50.576;8.568;2022-08-30T04:33:20;13.80;99.90
44305;DHT22;30019;50.576;8.568;2022-08-30T04:35:47;13.80;99.90
44305;DHT22;30019;50.576;8.568;2022-08-30T04:38:14;13.70;99.90
44305;DHT22;30019;50.576;8.568;2022-08-30T04:40:41;13.60;99.90
44305;DHT22;30019;50.576;8.568;2022-08-30T04:43:07;13.60;99.90
44305;DHT22;30019;50.576;8.568;2022-08-30T04:45:33;13.60;99.90
44305;DHT22;30019;50.576;8.568;2022-08-30T04:47:58;13.60;99.90
44305;DHT22;30019;50.576;8.568;2022-08-30T04:50:24;13.60;99.90
44305;DHT22;30019;50.576;8.568;2022-08-30T04:52:50;13.50;99.90
44305;DHT22;30019;50.576;8.568;2022-08-30T04:55:16;13.60;99.90
44305;DHT22;30019;50.576;8.568;2022-08-30T04:57:41;13.60;99.90
44305;DHT22;30019;50.576;8.568;2022-08-30T05:00:10;13.60;99.90
44305;DHT22;30019;50.576;8.568;2022-08-30T05:02:38;13.50;99.90
44305;DHT22;30019;50.576;8.568;2022-08-30T05:05:04;13.50;99.90
44305;DHT22;30019;50.576;8.568;2022-08-30T05:07:48;13.60;99.90
44305;DHT22;30019;50.576;8.568;2022-08-30T05:10:14;13.80;99.90
44305;DHT22;30019;50.576;8.568;2022-08-30T05:12:40;13.70;99.90
44305;DHT22;30019;50.576;8.568;2022-08-30T05:15:06;13.80;99.90
44305;DHT22;30019;50.576;8.568;2022-08-30T05:17:32;14.00;99.90
44305;DHT22;30019;50.576;8.568;2022-08-30T05:20:00;13.90;99.90
44305;DHT22;30019;50.576;8.568;2022-08-30T05:22:26;13.80;99.90
44305;DHT22;30019;50.576;8.568;2022-08-30T05:24:52;13.80;99.90
44305;DHT22;30019;50.576;8.568;2022-08-30T05:27:17;13.90;99.90
44305;DHT22;30019;50.576;8.568;2022-08-30T05:29:43;14.00;99.90
44305;DHT22;30019;50.576;8.568;2022-08-30T05:32:09;14.20;99.90
44305;DHT22;30019;50.576;8.568;2022-08-30T05:34:34;14.50;99.90
44305;DHT22;30019;50.576;8.568;2022-08-30T05:37:00;14.70;99.90
44305;DHT22;30019;50.576;8.568;2022-08-30T05:39:28;14.70;99.90
44305;DHT22;30019;50.576;8.568;2022-08-30T05:41:58;14.80;99.90
44305;DHT22;30019;50.576;8.568;2022-08-30T05:44:23;15.00;99.90
44305;DHT22;30019;50.576;8.568;2022-08-30T05:46:49;14.80;99.90
44305;DHT22;30019;50.576;8.568;2022-08-30T05:49:15;14.80;99.90
44305;DHT22;30019;50.576;8.568;2022-08-30T05:51:41;14.80;99.90
44305;DHT22;30019;50.576;8.568;2022-08-30T05:54:07;14.80;99.90
44305;DHT22;30019;50.576;8.568;2022-08-30T05:56:35;14.90;99.90
44305;DHT22;30019;50.576;8.568;2022-08-30T05:59:04;14.90;99.90
44305;DHT22;30019;50.576;8.568;2022-08-30T06:01:34;14.90;99.90
44305;DHT22;30019;50.576;8.568;2022-08-30T06:04:02;15.00;99.90
44305;DHT22;30019;50.576;8.568;2022-08-30T06:06:29;15.00;99.90
44305;DHT22;30019;50.576;8.568;2022-08-30T06:08:54;15.00;99.90
44305;DHT22;30019;50.576;8.568;2022-08-30T06:11:22;15.10;99.90
44305;DHT22;30019;50.576;8.568;2022-08-30T06:13:49;15.10;99.90
44305;DHT22;30019;50.576;8.568;2022-08-30T06:16:17;15.20;99.90
44305;DHT22;30019;50.576;8.568;2022-08-30T06:18:43;15.20;99.90
44305;DHT22;30019;50.576;8.568;2022-08-30T06:21:18;15.20;99.90
44305;DHT22;30019;50.576;8.568;2022-08-30T06:23:44;15.20;99.90
44305;DHT22;30019;50.576;8.568;2022-08-30T06:26:10;15.20;99.90
44305;DHT22;30019;50.576;8.568;2022-08-30T06:28:35;15.20;99.90
44305;DHT22;30019;50.576;8.568;2022-08-30T06:31:08;15.30;99.90
44305;DHT22;30019;50.576;8.568;2022-08-30T06:33:34;15.30;99.90
44305;DHT22;30019;50.576;8.568;2022-08-30T06:36:02;15.40;99.90
44305;DHT22;30019;50.576;8.568;2022-08-30T06:38:28;15.60;99.90
44305;DHT22;30019;50.576;8.568;2022-08-30T06:40:53;15.70;99.90
44305;DHT22;30019;50.576;8.568;2022-08-30T06:43:19;16.00;99.90
44305;DHT22;30019;50.576;8.568;2022-08-30T06:45:45;16.20;99.90
44305;DHT22;30019;50.576;8.568;2022-08-30T06:48:10;16.40;99.90
44305;DHT22;30019;50.576;8.568;2022-08-30T06:50:36;16.60;99.90
44305;DHT22;30019;50.576;8.568;2022-08-30T06:53:01;16.70;99.90
44305;DHT22;30019;50.576;8.568;2022-08-30T06:55:30;16.90;99.90
44305;DHT22;30019;50.576;8.568;2022-08-30T06:58:02;16.80;99.90
44305;DHT22;30019;50.576;8.568;2022-08-30T07:00:28;16.80;99.90
44305;DHT22;30019;50.576;8.568;2022-08-30T07:02:54;16.90;99.90
44305;DHT22;30019;50.576;8.568;2022-08-30T07:05:20;17.30;99.90
44305;DHT22;30019;50.576;8.568;2022-08-30T07:07:49;17.70;99.90
44305;DHT22;30019;50.576;8.568;2022-08-30T07:10:17;17.90;99.90
44305;DHT22;30019;50.576;8.568;2022-08-30T07:12:43;17.90;99.90
44305;DHT22;30019;50.576;8.568;2022-08-30T07:15:09;18.00;99.90
44305;DHT22;30019;50.576;8.568;2022-08-30T07:17:35;18.20;99.90
44305;DHT22;30019;50.576;8.568;2022-08-30T07:20:19;18.30;99.90
44305;DHT22;30019;50.576;8.568;2022-08-30T07:22:46;18.50;99.90
44305;DHT22;30019;50.576;8.568;2022-08-30T07:25:14;18.70;99.90
44305;DHT22;30019;50.576;8.568;2022-08-30T07:27:40;18.80;99.90
44305;DHT22;30019;50.576;8.568;2022-08-30T07:30:07;18.90;99.90
44305;DHT22;30019;50.576;8.568;2022-08-30T07:32:33;19.10;99.90
44305;DHT22;30019;50.576;8.568;2022-08-30T07:34:59;19.40;99.90
44305;DHT22;30019;50.576;8.568;2022-08-30T07:37:25;19.50;99.90
44305;DHT22;30019;50.576;8.568;2022-08-30T07:39:50;19.70;99.90
44305;DHT22;30019;50.576;8.568;2022-08-30T07:42:16;19.80;99.90
44305;DHT22;30019;50.576;8.568;2022-08-30T07:44:42;19.80;99.90
44305;DHT22;30019;50.576;8.568;2022-08-30T07:47:08;19.60;99.90
44305;DHT22;30019;50.576;8.568;2022-08-30T07:49:35;19.50;99.90
44305;DHT22;30019;50.576;8.568;2022-08-30T07:52:01;19.40;99.90
44305;DHT22;30019;50.576;8.568;2022-08-30T07:54:26;19.40;99.90
44305;DHT22;30019;50.576;8.568;2022-08-30T07:56:52;19.50;99.90
44305;DHT22;30019;50.576;8.568;2022-08-30T07:59:20;19.60;99.90
44305;DHT22;30019;50.576;8.568;2022-08-30T08:01:46;19.70;99.90
44305;DHT22;30019;50.576;8.568;2022-08-30T08:04:11;19.70;99.90
44305;DHT22;30019;50.576;8.568;2022-08-30T08:06:38;20.00;99.90
44305;DHT22;30019;50.576;8.568;2022-08-30T08:09:04;19.90;99.90
44305;DHT22;30019;50.576;8.568;2022-08-30T08:11:32;20.10;99.60
44305;DHT22;30019;50.576;8.568;2022-08-30T08:13:57;20.40;99.90
44305;DHT22;30019;50.576;8.568;2022-08-30T08:16:25;20.80;98.70
44305;DHT22;30019;50.576;8.568;2022-08-30T08:18:52;20.90;97.40
44305;DHT22;30019;50.576;8.568;2022-08-30T08:21:18;21.10;97.50
44305;DHT22;30019;50.576;8.568;2022-08-30T08:23:44;21.10;97.10
44305;DHT22;30019;50.576;8.568;2022-08-30T08:26:10;21.50;96.60
44305;DHT22;30019;50.576;8.568;2022-08-30T08:28:35;21.50;96.30
44305;DHT22;30019;50.576;8.568;2022-08-30T08:31:01;21.70;94.90
44305;DHT22;30019;50.576;8.568;2022-08-30T08:33:28;22.10;93.70
44305;DHT22;30019;50.576;8.568;2022-08-30T08:35:54;22.20;93.90
44305;DHT22;30019;50.576;8.568;2022-08-30T08:38:20;22.40;93.30
44305;DHT22;30019;50.576;8.568;2022-08-30T08:43:33;23.50;91.30
44305;DHT22;30019;50.576;8.568;2022-08-30T08:46:09;24.60;87.90
44305;DHT22;30019;50.576;8.568;2022-08-30T08:48:42;24.40;87.80
44305;DHT22;30019;50.576;8.568;2022-08-30T08:51:12;24.20;85.40
44305;DHT22;30019;50.576;8.568;2022-08-30T08:54:07;24.00;86.60
44305;DHT22;30019;50.576;8.568;2022-08-30T08:56:35;23.70;85.60
44305;DHT22;30019;50.576;8.568;2022-08-30T08:59:04;24.40;84.80
44305;DHT22;30019;50.576;8.568;2022-08-30T09:01:31;25.00;80.90
44305;DHT22;30019;50.576;8.568;2022-08-30T09:04:00;25.00;78.70
44305;DHT22;30019;50.576;8.568;2022-08-30T09:09:31;26.60;75.70
44305;DHT22;30019;50.576;8.568;2022-08-30T09:11:58;27.10;72.50
44305;DHT22;30019;50.576;8.568;2022-08-30T09:14:30;26.30;73.30
44305;DHT22;30019;50.576;8.568;2022-08-30T09:17:06;26.30;73.00
44305;DHT22;30019;50.576;8.568;2022-08-30T09:19:44;25.60;74.30
44305;DHT22;30019;50.576;8.568;2022-08-30T09:22:32;25.60;72.00
44305;DHT22;30019;50.576;8.568;2022-08-30T09:27:45;26.60;71.90
44305;DHT22;30019;50.576;8.568;2022-08-30T09:30:33;26.70;72.00
44305;DHT22;30019;50.576;8.568;2022-08-30T09:33:05;26.70;71.60
44305;DHT22;30019;50.576;8.568;2022-08-30T09:35:37;26.60;70.40
44305;DHT22;30019;50.576;8.568;2022-08-30T09:38:07;25.80;74.30
44305;DHT22;30019;50.576;8.568;2022-08-30T09:40:40;25.80;72.60
44305;DHT22;30019;50.576;8.568;2022-08-30T09:43:23;25.70;71.80
44305;DHT22;30019;50.576;8.568;2022-08-30T09:46:07;25.50;72.60
44305;DHT22;30019;50.576;8.568;2022-08-30T09:48:41;25.40;71.80
44305;DHT22;30019;50.576;8.568;2022-08-30T09:54:23;25.10;72.60
44305;DHT22;30019;50.576;8.568;2022-08-30T09:59:48;25.50;72.70
44305;DHT22;30019;50.576;8.568;2022-08-30T10:05:20;25.40;70.20
44305;DHT22;30019;50.576;8.568;2022-08-30T10:10:32;25.50;69.40
44305;DHT22;30019;50.576;8.568;2022-08-30T10:21:46;28.30;61.00
44305;DHT22;30019;50.576;8.568;2022-08-30T10:24:16;27.80;59.60
44305;DHT22;30019;50.576;8.568;2022-08-30T10:27:01;28.00;58.30
44305;DHT22;30019;50.576;8.568;2022-08-30T10:29:56;27.80;57.70
44305;DHT22;30019;50.576;8.568;2022-08-30T10:32:26;28.40;57.50
44305;DHT22;30019;50.576;8.568;2022-08-30T10:35:15;29.80;55.20
44305;DHT22;30019;50.576;8.568;2022-08-30T10:38:17;30.10;54.50
44305;DHT22;30019;50.576;8.568;2022-08-30T10:40:49;30.30;51.90
44305;DHT22;30019;50.576;8.568;2022-08-30T10:43:57;31.20;51.10
44305;DHT22;30019;50.576;8.568;2022-08-30T10:48:55;31.00;51.20
44305;DHT22;30019;50.576;8.568;2022-08-30T10:51:32;31.10;52.10
44305;DHT22;30019;50.576;8.568;2022-08-30T10:56:53;31.50;53.20
44305;DHT22;30019;50.576;8.568;2022-08-30T10:59:19;32.60;51.40
44305;DHT22;30019;50.576;8.568;2022-08-30T11:02:09;32.90;48.20
44305;DHT22;30019;50.576;8.568;2022-08-30T11:07:32;31.70;50.00
44305;DHT22;30019;50.576;8.568;2022-08-30T11:13:20;29.30;54.20
44305;DHT22;30019;50.576;8.568;2022-08-30T11:16:11;29.60;54.80
44305;DHT22;30019;50.576;8.568;2022-08-30T11:18:49;30.70;52.90
44305;DHT22;30019;50.576;8.568;2022-08-30T11:21:40;31.20;51.60
44305;DHT22;30019;50.576;8.568;2022-08-30T11:24:10;30.30;51.90
44305;DHT22;30019;50.576;8.568;2022-08-30T11:29:31;30.00;54.60
44305;DHT22;30019;50.576;8.568;2022-08-30T11:39:57;30.40;54.20
44305;DHT22;30019;50.576;8.568;2022-08-30T11:47:54;30.20;54.20
44305;DHT22;30019;50.576;8.568;2022-08-30T11:53:28;32.80;48.60
44305;DHT22;30019;50.576;8.568;2022-08-30T11:58:59;32.50;48.90
44305;DHT22;30019;50.576;8.568;2022-08-30T12:06:45;32.40;49.60
44305;DHT22;30019;50.576;8.568;2022-08-30T12:12:05;31.20;50.00
44305;DHT22;30019;50.576;8.568;2022-08-30T12:15:06;31.70;49.60
44305;DHT22;30019;50.576;8.568;2022-08-30T12:17:55;31.50;49.70
44305;DHT22;30019;50.576;8.568;2022-08-30T12:20:43;31.30;48.80
44305;DHT22;30019;50.576;8.568;2022-08-30T12:28:41;32.10;49.80
44305;DHT22;30019;50.576;8.568;2022-08-30T12:31:37;31.50;48.90
44305;DHT22;30019;50.576;8.568;2022-08-30T12:34:05;31.40;49.60
44305;DHT22;30019;50.576;8.568;2022-08-30T12:36:39;31.10;50.50
44305;DHT22;30019;50.576;8.568;2022-08-30T12:39:19;30.40;50.50
44305;DHT22;30019;50.576;8.568;2022-08-30T12:41:44;30.20;51.70
44305;DHT22;30019;50.576;8.568;2022-08-30T12:44:16;29.70;51.80
44305;DHT22;30019;50.576;8.568;2022-08-30T12:46:45;29.30;52.10
44305;DHT22;30019;50.576;8.568;2022-08-30T12:49:15;28.90;52.80
44305;DHT22;30019;50.576;8.568;2022-08-30T12:51:42;28.40;54.70
44305;DHT22;30019;50.576;8.568;2022-08-30T12:54:14;28.00;56.50
44305;DHT22;30019;50.576;8.568;2022-08-30T12:56:56;28.30;54.10
44305;DHT22;30019;50.576;8.568;2022-08-30T12:59:57;29.20;53.70
44305;DHT22;30019;50.576;8.568;2022-08-30T13:02:25;30.00;53.30
44305;DHT22;30019;50.576;8.568;2022-08-30T13:04:53;29.90;52.50
44305;DHT22;30019;50.576;8.568;2022-08-30T13:07:34;29.60;52.90
44305;DHT22;30019;50.576;8.568;2022-08-30T13:10:14;29.20;51.60
44305;DHT22;30019;50.576;8.568;2022-08-30T13:13:06;28.50;53.80
44305;DHT22;30019;50.576;8.568;2022-08-30T13:15:33;28.70;53.20
44305;DHT22;30019;50.576;8.568;2022-08-30T13:20:36;29.30;54.10
44305;DHT22;30019;50.576;8.568;2022-08-30T13:23:09;30.10;52.60
44305;DHT22;30019;50.576;8.568;2022-08-30T13:25:37;30.20;51.90
44305;DHT22;30019;50.576;8.568;2022-08-30T13:28:05;29.60;52.90
44305;DHT22;30019;50.576;8.568;2022-08-30T13:30:32;29.30;51.90
44305;DHT22;30019;50.576;8.568;2022-08-30T13:32:58;29.50;52.60
44305;DHT22;30019;50.576;8.568;2022-08-30T13:35:25;29.60;51.80
44305;DHT22;30019;50.576;8.568;2022-08-30T13:37:51;29.20;52.40
44305;DHT22;30019;50.576;8.568;2022-08-30T13:40:18;29.50;52.70
44305;DHT22;30019;50.576;8.568;2022-08-30T13:42:44;29.70;52.90
44305;DHT22;30019;50.576;8.568;2022-08-30T13:45:11;29.80;51.70
44305;DHT22;30019;50.576;8.568;2022-08-30T13:47:37;29.60;51.70
44305;DHT22;30019;50.576;8.568;2022-08-30T13:50:04;29.30;52.10
44305;DHT22;30019;50.576;8.568;2022-08-30T13:52:30;29.40;52.80
44305;DHT22;30019;50.576;8.568;2022-08-30T13:54:56;29.70;52.00
44305;DHT22;30019;50.576;8.568;2022-08-30T13:57:24;29.80;52.00
44305;DHT22;30019;50.576;8.568;2022-08-30T13:59:50;29.70;51.50
44305;DHT22;30019;50.576;8.568;2022-08-30T14:02:16;30.00;52.60
44305;DHT22;30019;50.576;8.568;2022-08-30T14:04:42;30.40;51.20
44305;DHT22;30019;50.576;8.568;2022-08-30T14:07:07;30.60;52.40
44305;DHT22;30019;50.576;8.568;2022-08-30T14:09:33;31.10;51.90
44305;DHT22;30019;50.576;8.568;2022-08-30T14:11:58;30.90;49.20
44305;DHT22;30019;50.576;8.568;2022-08-30T14:14:24;30.80;51.20
44305;DHT22;30019;50.576;8.568;2022-08-30T14:16:50;30.70;51.70
44305;DHT22;30019;50.576;8.568;2022-08-30T14:19:16;30.60;51.10
44305;DHT22;30019;50.576;8.568;2022-08-30T14:21:42;30.60;51.70
44305;DHT22;30019;50.576;8.568;2022-08-30T14:24:09;30.00;50.80
44305;DHT22;30019;50.576;8.568;2022-08-30T14:26:41;29.40;52.20
44305;DHT22;30019;50.576;8.568;2022-08-30T14:29:14;29.60;51.30
44305;DHT22;30019;50.576;8.568;2022-08-30T14:31:41;29.70;52.60
44305;DHT22;30019;50.576;8.568;2022-08-30T14:34:08;29.80;52.30
44305;DHT22;30019;50.576;8.568;2022-08-30T14:36:35;30.30;51.20
44305;DHT22;30019;50.576;8.568;2022-08-30T14:39:04;30.40;50.70
44305;DHT22;30019;50.576;8.568;2022-08-30T14:41:30;30.50;50.80
44305;DHT22;30019;50.576;8.568;2022-08-30T14:43:56;30.10;50.90
44305;DHT22;30019;50.576;8.568;2022-08-30T14:46:22;29.40;52.20
44305;DHT22;30019;50.576;8.568;2022-08-30T14:48:49;28.50;53.20
44305;DHT22;30019;50.576;8.568;2022-08-30T14:51:18;28.00;54.10
44305;DHT22;30019;50.576;8.568;2022-08-30T14:53:45;27.50;55.10
44305;DHT22;30019;50.576;8.568;2022-08-30T14:56:15;27.20;55.90
44305;DHT22;30019;50.576;8.568;2022-08-30T14:58:41;27.10;56.10
44305;DHT22;30019;50.576;8.568;2022-08-30T15:01:08;27.10;56.40
44305;DHT22;30019;50.576;8.568;2022-08-30T15:03:35;27.30;56.30
44305;DHT22;30019;50.576;8.568;2022-08-30T15:06:01;27.20;55.80
44305;DHT22;30019;50.576;8.568;2022-08-30T15:08:26;27.20;56.90
44305;DHT22;30019;50.576;8.568;2022-08-30T15:10:52;27.50;56.10
44305;DHT22;30019;50.576;8.568;2022-08-30T15:13:17;27.80;54.80
44305;DHT22;30019;50.576;8.568;2022-08-30T15:15:43;28.20;55.20
44305;DHT22;30019;50.576;8.568;2022-08-30T15:18:09;28.70;53.80
44305;DHT22;30019;50.576;8.568;2022-08-30T15:20:34;29.20;53.00
44305;DHT22;30019;50.576;8.568;2022-08-30T15:23:00;29.20;52.00
44305;DHT22;30019;50.576;8.568;2022-08-30T15:25:26;29.20;52.00
44305;DHT22;30019;50.576;8.568;2022-08-30T15:27:51;28.70;52.40
44305;DHT22;30019;50.576;8.568;2022-08-30T15:30:17;28.50;52.10
44305;DHT22;30019;50.576;8.568;2022-08-30T15:32:43;28.50;53.30
44305;DHT22;30019;50.576;8.568;2022-08-30T15:35:08;28.10;53.20
44305;DHT22;30019;50.576;8.568;2022-08-30T15:37:34;28.20;53.70
44305;DHT22;30019;50.576;8.568;2022-08-30T15:40:02;28.70;53.00
44305;DHT22;30019;50.576;8.568;2022-08-30T15:42:28;29.00;52.30
44305;DHT22;30019;50.576;8.568;2022-08-30T15:44:54;29.10;52.40
44305;DHT22;30019;50.576;8.568;2022-08-30T15:47:21;28.70;52.60
44305;DHT22;30019;50.576;8.568;2022-08-30T15:49:58;28.60;52.90
44305;DHT22;30019;50.576;8.568;2022-08-30T15:52:25;28.60;53.80
44305;DHT22;30019;50.576;8.568;2022-08-30T15:54:51;28.50;54.00
44305;DHT22;30019;50.576;8.568;2022-08-30T15:57:17;28.50;53.80
44305;DHT22;30019;50.576;8.568;2022-08-30T15:59:42;28.50;53.70
44305;DHT22;30019;50.576;8.568;2022-08-30T16:02:08;28.60;53.30
44305;DHT22;30019;50.576;8.568;2022-08-30T16:04:34;28.50;53.80
44305;DHT22;30019;50.576;8.568;2022-08-30T16:07:00;28.30;54.00
44305;DHT22;30019;50.576;8.568;2022-08-30T16:09:26;28.00;54.50
44305;DHT22;30019;50.576;8.568;2022-08-30T16:11:51;27.80;54.10
44305;DHT22;30019;50.576;8.568;2022-08-30T16:14:17;27.80;54.20
44305;DHT22;30019;50.576;8.568;2022-08-30T16:16:42;27.60;54.60
44305;DHT22;30019;50.576;8.568;2022-08-30T16:19:10;27.60;55.10
44305;DHT22;30019;50.576;8.568;2022-08-30T16:21:36;27.50;55.20
44305;DHT22;30019;50.576;8.568;2022-08-30T16:24:05;27.30;55.00
44305;DHT22;30019;50.576;8.568;2022-08-30T16:26:32;27.30;55.90
44305;DHT22;30019;50.576;8.568;2022-08-30T16:28:58;27.10;56.40
44305;DHT22;30019;50.576;8.568;2022-08-30T16:31:26;26.90;55.80
44305;DHT22;30019;50.576;8.568;2022-08-30T16:33:53;26.80;55.90
44305;DHT22;30019;50.576;8.568;2022-08-30T16:36:20;26.90;56.20
44305;DHT22;30019;50.576;8.568;2022-08-30T16:38:45;26.90;56.70
44305;DHT22;30019;50.576;8.568;2022-08-30T16:41:12;27.00;56.60
44305;DHT22;30019;50.576;8.568;2022-08-30T16:43:39;26.90;56.70
44305;DHT22;30019;50.576;8.568;2022-08-30T16:46:08;26.80;55.90
44305;DHT22;30019;50.576;8.568;2022-08-30T16:48:33;26.70;56.80
44305;DHT22;30019;50.576;8.568;2022-08-30T16:50:59;26.60;57.60
44305;DHT22;30019;50.576;8.568;2022-08-30T16:53:27;26.40;58.10
44305;DHT22;30019;50.576;8.568;2022-08-30T16:55:53;26.30;58.30
44305;DHT22;30019;50.576;8.568;2022-08-30T16:58:19;26.20;58.40
44305;DHT22;30019;50.576;8.568;2022-08-30T17:00:48;26.00;58.80